MMAS/AGU METAR and TAF weather

Enter ICAO airport designator
Station Type Date Time Source
MMAS METAR 2019/07/18 10:40 UTC NOAA

MMAS 181040Z 05005KT 8SM BKN230 15/11 A3031 RMK 8/008


Station Type Date Time Source
MMAS Decoded METAR 2019/07/18 10:40 UTC NOAA

Aguascalientes, Ags., Mexico (MMAS) 21-53N 102-18W
Jul 18, 2019 - 06:40 AM EDT / 2019.07.18 1040 UTC
Wind: from the NE (050 degrees) at 6 MPH (5 KT):0
Visibility: 8 mile(s):0
Sky conditions: mostly cloudy
Temperature: 59 F (15 C)
Dew Point: 51 F (11 C)
Relative Humidity: 76%
Pressure (altimeter): 30.31 in. Hg (1026 hPa)
ob: MMAS 181040Z 05005KT 8SM BKN230 15/11 A3031 RMK 8/008
cycle: 10

Station Type Date Time Source
MMAS TAF 2019/07/18 06:53 UTC NOAA

TAF MMAS 180446Z 1806/1906 08005KT P6SM SCT100
FM181800 13010KT P6SM BKN040
TEMPO 1822/1902 6SM TSRA BKN020

Example: see airport list